Time;durP1;ratioP1;P1;durP2;ratioP2;P2;SDS_P1;SDS_P2;PMS_P1;PMS_P2;Temp;Humidity;BMP_temperature;BMP_pressure;BME280_temperature;BME280_humidity;BME280_pressure;Samples;Min_cycle;Max_cycle;Signal;HPM_P1;HPM_P2
2022/06/24 00:00:04;;;;;;;6.43;2.28;;;;;;;;;;5070521;28;20028;-36
2022/06/24 00:02:30;;;;;;;5.28;2.97;;;;;;;;;;5071294;28;20056;-38
2022/06/24 00:04:56;;;;;;;3.90;2.72;;;;;;;;;;5071051;28;20114;-37
2022/06/24 00:07:22;;;;;;;5.80;2.33;;;;;;;;;;5069698;28;20017;-36
2022/06/24 00:09:48;;;;;;;6.68;2.22;;;;;;;;;;5070883;28;20044;-36
2022/06/24 00:12:14;;;;;;;6.93;2.90;;;;;;;;;;5071153;28;20048;-37
2022/06/24 00:14:41;;;;;;;8.10;2.78;;;;;;;;;;5071145;28;20384;-37
2022/06/24 00:17:07;;;;;;;7.53;2.70;;;;;;;;;;5070424;28;20027;-36
2022/06/24 00:19:34;;;;;;;9.02;3.08;;;;;;;;;;5069843;28;20418;-36
2022/06/24 00:22:12;;;;;;;5.28;2.40;;;;;;;;;;5070798;28;20103;-38
2022/06/24 00:24:38;;;;;;;5.60;2.78;;;;;;;;;;5070901;28;20032;-36
2022/06/24 00:27:15;;;;;;;10.52;2.72;;;;;;;;;;5071250;28;20017;-36
2022/06/24 00:29:40;;;;;;;5.53;2.40;;;;;;;;;;5069641;28;20107;-36
2022/06/24 00:32:06;;;;;;;7.75;2.83;;;;;;;;;;5070914;28;20555;-37
2022/06/24 00:34:36;;;;;;;5.82;2.53;;;;;;;;;;5072907;28;20082;-37
2022/06/24 00:37:20;;;;;;;6.90;2.35;;;;;;;;;;5072896;28;20024;-37
2022/06/24 00:39:45;;;;;;;3.80;2.70;;;;;;;;;;5074483;28;20037;-36
2022/06/24 00:42:11;;;;;;;3.83;2.65;;;;;;;;;;5074358;28;20020;-36
2022/06/24 00:44:42;;;;;;;9.18;2.88;;;;;;;;;;5074464;28;20021;-36
2022/06/24 00:47:08;;;;;;;5.55;2.42;;;;;;;;;;5073816;28;20016;-36
2022/06/24 00:49:34;;;;;;;9.50;3.40;;;;;;;;;;5074536;28;20352;-37
2022/06/24 00:52:05;;;;;;;7.22;2.63;;;;;;;;;;5072809;28;20025;-37
2022/06/24 00:54:30;;;;;;;11.85;2.60;;;;;;;;;;5074337;28;20410;-36
2022/06/24 00:56:56;;;;;;;3.20;2.47;;;;;;;;;;5074075;28;20013;-36
2022/06/24 00:59:22;;;;;;;6.82;2.28;;;;;;;;;;5073910;28;20098;-36
2022/06/24 01:01:49;;;;;;;4.70;2.78;;;;;;;;;;5073792;28;20454;-36
2022/06/24 01:04:14;;;;;;;5.10;2.20;;;;;;;;;;5074292;28;20013;-36
2022/06/24 01:06:41;;;;;;;5.57;2.70;;;;;;;;;;5073878;28;20421;-37
2022/06/24 01:09:10;;;;;;;8.93;2.70;;;;;;;;;;5073520;28;20125;-36
2022/06/24 01:11:36;;;;;;;4.88;2.55;;;;;;;;;;5073676;28;20091;-36
2022/06/24 01:14:02;;;;;;;4.10;2.60;;;;;;;;;;5073563;28;20098;-37
2022/06/24 01:16:27;;;;;;;4.72;2.42;;;;;;;;;;5073677;28;20032;-37
2022/06/24 01:18:54;;;;;;;4.35;2.70;;;;;;;;;;5073925;28;20021;-36
2022/06/24 01:21:35;;;;;;;7.93;2.55;;;;;;;;;;5073741;28;20024;-36
2022/06/24 01:24:11;;;;;;;6.38;2.58;;;;;;;;;;5073353;28;20031;-37
2022/06/24 01:26:38;;;;;;;4.10;2.88;;;;;;;;;;5073616;28;20025;-38
2022/06/24 01:29:03;;;;;;;4.82;2.60;;;;;;;;;;5072064;28;20078;-36
2022/06/24 01:31:29;;;;;;;4.45;2.85;;;;;;;;;;5073428;28;20408;-36
2022/06/24 01:33:54;;;;;;;4.38;2.60;;;;;;;;;;5072296;28;20029;-36
2022/06/24 01:36:20;;;;;;;7.78;2.75;;;;;;;;;;5073325;28;20464;-37
2022/06/24 01:38:45;;;;;;;6.15;2.90;;;;;;;;;;5073511;28;20348;-36
2022/06/24 01:41:11;;;;;;;7.03;2.22;;;;;;;;;;5073246;28;20016;-36
2022/06/24 01:43:36;;;;;;;7.55;2.90;;;;;;;;;;5073120;28;20020;-38
2022/06/24 01:46:01;;;;;;;5.40;2.30;;;;;;;;;;5072871;28;20472;-37
2022/06/24 01:48:27;;;;;;;6.38;3.10;;;;;;;;;;5072970;28;20017;-36
2022/06/24 01:50:52;;;;;;;6.40;2.47;;;;;;;;;;5073112;28;20056;-36
2022/06/24 01:53:17;;;;;;;4.25;2.85;;;;;;;;;;5071531;28;20119;-36
2022/06/24 01:55:43;;;;;;;7.40;2.67;;;;;;;;;;5072949;28;20024;-36
2022/06/24 01:58:08;;;;;;;7.25;3.72;;;;;;;;;;5071376;28;20111;-36
2022/06/24 02:00:33;;;;;;;8.57;2.75;;;;;;;;;;5072820;28;20021;-36
2022/06/24 02:02:59;;;;;;;5.90;2.53;;;;;;;;;;5071725;28;20027;-37
2022/06/24 02:05:24;;;;;;;5.65;2.80;;;;;;;;;;5071259;28;20438;-36
2022/06/24 02:07:50;;;;;;;4.43;3.00;;;;;;;;;;5073035;28;20025;-37
2022/06/24 02:15:42;;;;;;;5.70;2.40;;;;;;;;;;5071808;28;20458;-36
2022/06/24 02:18:09;;;;;;;5.15;2.80;;;;;;;;;;5072920;28;20095;-37
2022/06/24 02:20:34;;;;;;;5.13;2.53;;;;;;;;;;5072710;28;20388;-36
2022/06/24 02:22:59;;;;;;;8.02;2.65;;;;;;;;;;5070669;28;20021;-38
2022/06/24 02:25:25;;;;;;;3.28;2.28;;;;;;;;;;5072291;28;20074;-36
2022/06/24 02:27:50;;;;;;;6.93;2.70;;;;;;;;;;5072519;28;20044;-37
2022/06/24 02:30:15;;;;;;;4.25;2.42;;;;;;;;;;5072393;28;20450;-37
2022/06/24 02:32:41;;;;;;;6.90;2.50;;;;;;;;;;5072303;28;20043;-36
2022/06/24 02:35:06;;;;;;;4.95;2.83;;;;;;;;;;5071968;28;20013;-36
2022/06/24 02:37:31;;;;;;;5.97;2.78;;;;;;;;;;5072090;28;20139;-37
2022/06/24 02:40:45;;;;;;;3.80;2.28;;;;;;;;;;5071361;28;20025;-36
2022/06/24 02:42:43;;;;;;;5.95;3.25;;;;;;;;;;5071613;28;20028;-38
2022/06/24 02:45:08;;;;;;;4.13;2.65;;;;;;;;;;5071812;28;20380;-36
2022/06/24 02:47:34;;;;;;;5.80;2.55;;;;;;;;;;5071735;28;20016;-36
2022/06/24 02:49:59;;;;;;;5.20;2.78;;;;;;;;;;5072327;28;20052;-37
2022/06/24 02:52:24;;;;;;;4.95;2.80;;;;;;;;;;5071547;28;20134;-40
2022/06/24 02:54:49;;;;;;;4.13;2.67;;;;;;;;;;5071727;28;20024;-38
2022/06/24 02:57:15;;;;;;;3.30;2.53;;;;;;;;;;5069948;28;20020;-36
2022/06/24 02:59:40;;;;;;;3.47;2.58;;;;;;;;;;5071661;28;20069;-36
2022/06/24 03:02:06;;;;;;;3.00;2.53;;;;;;;;;;5071629;28;20478;-36
2022/06/24 03:04:31;;;;;;;6.72;2.75;;;;;;;;;;5071887;28;20020;-36
2022/06/24 03:06:56;;;;;;;3.05;2.50;;;;;;;;;;5071723;28;20081;-37
2022/06/24 03:09:22;;;;;;;5.25;2.60;;;;;;;;;;5071155;28;20084;-36
2022/06/24 03:11:47;;;;;;;4.32;2.97;;;;;;;;;;5071390;28;20032;-36
2022/06/24 03:14:12;;;;;;;5.72;2.30;;;;;;;;;;5071610;28;20047;-40
2022/06/24 03:16:38;;;;;;;3.50;2.55;;;;;;;;;;5071248;28;20028;-36
2022/06/24 03:19:03;;;;;;;8.98;2.67;;;;;;;;;;5071469;28;20407;-36
2022/06/24 03:21:28;;;;;;;3.95;2.60;;;;;;;;;;5071619;28;20434;-36
2022/06/24 03:23:54;;;;;;;11.05;3.55;;;;;;;;;;5071007;28;20074;-37
2022/06/24 03:26:19;;;;;;;5.03;3.22;;;;;;;;;;5071894;28;20025;-36
2022/06/24 03:28:44;;;;;;;6.03;2.67;;;;;;;;;;5071696;28;20052;-37
2022/06/24 03:31:12;;;;;;;7.60;2.90;;;;;;;;;;5071531;28;20052;-37
2022/06/24 03:33:37;;;;;;;8.10;3.60;;;;;;;;;;5071496;28;20534;-36
2022/06/24 03:36:10;;;;;;;4.00;2.80;;;;;;;;;;5070814;28;20100;-37
2022/06/24 03:38:35;;;;;;;3.97;2.97;;;;;;;;;;5071404;28;20149;-36
2022/06/24 03:41:00;;;;;;;8.25;2.90;;;;;;;;;;5071595;28;20663;-37
2022/06/24 03:43:25;;;;;;;5.78;2.38;;;;;;;;;;5071644;28;20013;-37
2022/06/24 03:45:58;;;;;;;4.43;2.50;;;;;;;;;;5071050;28;20067;-40
2022/06/24 03:48:24;;;;;;;4.63;2.75;;;;;;;;;;5071428;28;20021;-36
2022/06/24 03:50:49;;;;;;;3.90;2.47;;;;;;;;;;5071633;28;20074;-38
2022/06/24 03:53:14;;;;;;;9.45;2.78;;;;;;;;;;5070893;28;20119;-37
2022/06/24 03:55:40;;;;;;;5.97;2.70;;;;;;;;;;5071220;28;20103;-37
2022/06/24 03:58:05;;;;;;;4.55;2.28;;;;;;;;;;5071189;28;20021;-36
2022/06/24 04:00:31;;;;;;;7.00;2.78;;;;;;;;;;5070996;28;20095;-38
2022/06/24 04:02:56;;;;;;;3.08;2.00;;;;;;;;;;5071470;28;20039;-36
2022/06/24 04:05:22;;;;;;;7.38;2.70;;;;;;;;;;5071235;28;20024;-36
2022/06/24 04:07:47;;;;;;;4.53;2.53;;;;;;;;;;5072404;28;20039;-36
2022/06/24 04:10:12;;;;;;;10.38;2.83;;;;;;;;;;5074760;28;20073;-37
2022/06/24 04:12:37;;;;;;;5.63;2.53;;;;;;;;;;5074667;28;20154;-37
2022/06/24 04:15:17;;;;;;;6.00;2.28;;;;;;;;;;5075186;28;20253;-36
2022/06/24 04:17:49;;;;;;;7.88;3.13;;;;;;;;;;5074817;28;20028;-37
2022/06/24 04:20:15;;;;;;;6.00;2.35;;;;;;;;;;5074611;28;20024;-37
2022/06/24 04:22:40;;;;;;;5.65;2.50;;;;;;;;;;5074988;28;20127;-39
2022/06/24 04:25:06;;;;;;;5.50;2.20;;;;;;;;;;5073199;28;20025;-37
2022/06/24 04:27:31;;;;;;;5.85;2.30;;;;;;;;;;5074588;28;20530;-37
2022/06/24 04:30:07;;;;;;;3.08;2.50;;;;;;;;;;5074779;28;20104;-36
2022/06/24 04:32:33;;;;;;;4.05;2.60;;;;;;;;;;5073395;28;20063;-36
2022/06/24 04:34:58;;;;;;;5.50;2.95;;;;;;;;;;5074013;28;20510;-36
2022/06/24 04:37:23;;;;;;;5.65;2.35;;;;;;;;;;5074690;28;20109;-37
2022/06/24 04:39:49;;;;;;;5.07;2.70;;;;;;;;;;5073193;28;20032;-36
2022/06/24 04:42:14;;;;;;;9.13;2.42;;;;;;;;;;5074428;28;20028;-37
2022/06/24 04:44:40;;;;;;;4.90;2.20;;;;;;;;;;5074353;28;20022;-37
2022/06/24 04:47:05;;;;;;;7.13;2.65;;;;;;;;;;5074412;28;20094;-37
2022/06/24 04:49:31;;;;;;;7.75;2.63;;;;;;;;;;5074074;28;20071;-37
2022/06/24 04:51:57;;;;;;;6.63;2.75;;;;;;;;;;5072999;28;20035;-37
2022/06/24 04:54:22;;;;;;;26.05;3.70;;;;;;;;;;5074774;28;20020;-36
2022/06/24 04:56:47;;;;;;;12.07;2.50;;;;;;;;;;5074297;28;20066;-36
2022/06/24 04:59:13;;;;;;;5.20;2.40;;;;;;;;;;5073664;28;20025;-37
2022/06/24 05:01:38;;;;;;;7.90;2.08;;;;;;;;;;5072743;28;20058;-39
2022/06/24 05:04:03;;;;;;;6.60;2.10;;;;;;;;;;5073699;28;20023;-37
2022/06/24 05:06:29;;;;;;;11.10;3.45;;;;;;;;;;5072585;28;20047;-38
2022/06/24 05:08:54;;;;;;;12.13;2.80;;;;;;;;;;5073792;28;20029;-37
2022/06/24 05:11:19;;;;;;;12.05;2.70;;;;;;;;;;5073466;28;20032;-36
2022/06/24 05:13:45;;;;;;;10.35;2.70;;;;;;;;;;5073938;28;20039;-36
2022/06/24 05:16:10;;;;;;;6.35;2.40;;;;;;;;;;5073525;28;20047;-37
2022/06/24 05:18:35;;;;;;;8.30;2.33;;;;;;;;;;5073542;28;20098;-37
2022/06/24 05:21:02;;;;;;;5.38;2.35;;;;;;;;;;5072847;28;20093;-37
2022/06/24 05:23:28;;;;;;;5.65;2.25;;;;;;;;;;5073513;28;20424;-37
2022/06/24 05:25:53;;;;;;;3.75;1.88;;;;;;;;;;5073525;28;20031;-37
2022/06/24 05:28:18;;;;;;;4.97;2.05;;;;;;;;;;5073759;28;20025;-37
2022/06/24 05:30:44;;;;;;;5.55;2.42;;;;;;;;;;5073660;28;20016;-36
2022/06/24 05:33:09;;;;;;;7.00;2.00;;;;;;;;;;5072058;28;20066;-37
2022/06/24 05:35:35;;;;;;;11.43;2.30;;;;;;;;;;5072890;28;20031;-37
2022/06/24 05:38:00;;;;;;;5.95;2.15;;;;;;;;;;5073457;28;20017;-37
2022/06/24 05:40:26;;;;;;;7.07;2.10;;;;;;;;;;5073594;28;20082;-37
2022/06/24 05:42:52;;;;;;;9.17;1.80;;;;;;;;;;5072205;28;20017;-38
2022/06/24 05:45:17;;;;;;;5.20;2.20;;;;;;;;;;5073333;28;20257;-37
2022/06/24 05:47:43;;;;;;;4.97;2.00;;;;;;;;;;5072893;28;20025;-37
2022/06/24 05:50:08;;;;;;;4.53;1.92;;;;;;;;;;5073031;28;20372;-37
2022/06/24 05:55:17;;;;;;;7.45;2.10;;;;;;;;;;5072960;28;20107;-37
2022/06/24 05:57:42;;;;;;;4.90;1.77;;;;;;;;;;5071736;28;20040;-36
2022/06/24 06:00:08;;;;;;;3.15;2.00;;;;;;;;;;5072510;28;20016;-38
2022/06/24 06:02:33;;;;;;;5.68;1.70;;;;;;;;;;5062087;28;20021;-37
2022/06/24 06:04:58;;;;;;;7.72;2.05;;;;;;;;;;5065204;28;20020;-39
2022/06/24 06:07:25;;;;;;;9.45;2.05;;;;;;;;;;5059972;28;20361;-37
2022/06/24 06:09:50;;;;;;;3.75;2.00;;;;;;;;;;5061834;28;20128;-37
2022/06/24 06:12:15;;;;;;;7.00;2.03;;;;;;;;;;5055978;28;20103;-36
2022/06/24 06:14:41;;;;;;;5.22;1.55;;;;;;;;;;5068762;28;20026;-37
2022/06/24 06:17:06;;;;;;;5.05;2.15;;;;;;;;;;5072160;28;20017;-36
2022/06/24 06:19:33;;;;;;;7.22;2.13;;;;;;;;;;5062932;28;20507;-36
2022/06/24 06:21:59;;;;;;;7.43;1.73;;;;;;;;;;5066612;28;20078;-39
2022/06/24 06:24:25;;;;;;;6.72;1.80;;;;;;;;;;5064011;28;20187;-37
2022/06/24 06:26:50;;;;;;;2.17;1.63;;;;;;;;;;5063788;28;20519;-41
2022/06/24 06:29:15;;;;;;;5.40;2.10;;;;;;;;;;5052197;28;20242;-37
2022/06/24 06:31:40;;;;;;;6.85;1.80;;;;;;;;;;5063180;28;20564;-41
2022/06/24 06:34:06;;;;;;;5.82;2.13;;;;;;;;;;5055687;28;20090;-38
2022/06/24 06:36:31;;;;;;;8.67;1.93;;;;;;;;;;5055708;28;20036;-38
2022/06/24 06:38:56;;;;;;;5.15;2.05;;;;;;;;;;5071093;28;20299;-37
2022/06/24 06:41:22;;;;;;;7.70;1.88;;;;;;;;;;5070984;28;20040;-36
2022/06/24 06:43:47;;;;;;;4.90;1.90;;;;;;;;;;5056335;28;20078;-37
2022/06/24 06:46:13;;;;;;;8.70;2.10;;;;;;;;;;5059287;28;20448;-38
2022/06/24 06:48:38;;;;;;;3.40;1.63;;;;;;;;;;5055700;28;20024;-38
2022/06/24 06:51:03;;;;;;;4.55;2.10;;;;;;;;;;5056385;28;20100;-38
2022/06/24 06:53:29;;;;;;;3.58;1.67;;;;;;;;;;5051446;28;20032;-37
2022/06/24 06:55:54;;;;;;;4.85;1.70;;;;;;;;;;5055750;28;20507;-37
2022/06/24 06:58:21;;;;;;;3.33;1.50;;;;;;;;;;5056711;28;20110;-37
2022/06/24 07:00:47;;;;;;;2.75;1.70;;;;;;;;;;5054712;28;20048;-38
2022/06/24 07:03:12;;;;;;;4.57;1.58;;;;;;;;;;5060127;28;20395;-39
2022/06/24 07:05:38;;;;;;;1.50;1.30;;;;;;;;;;5063872;28;20021;-38
2022/06/24 07:08:04;;;;;;;3.08;1.20;;;;;;;;;;5070965;28;20253;-37
2022/06/24 07:10:29;;;;;;;3.80;1.10;;;;;;;;;;5069924;28;20139;-37
2022/06/24 07:12:55;;;;;;;3.65;1.40;;;;;;;;;;5061067;28;20527;-38
2022/06/24 07:15:20;;;;;;;5.93;1.52;;;;;;;;;;5055648;28;20043;-37
2022/06/24 07:17:45;;;;;;;5.22;1.52;;;;;;;;;;5057134;28;20074;-40
2022/06/24 07:20:11;;;;;;;3.63;1.70;;;;;;;;;;5054128;28;20103;-39
2022/06/24 07:22:37;;;;;;;7.15;2.10;;;;;;;;;;5063058;28;20024;-39
2022/06/24 07:25:02;;;;;;;4.78;2.10;;;;;;;;;;5056292;28;20028;-39
2022/06/24 07:27:28;;;;;;;3.38;1.50;;;;;;;;;;5052757;28;20040;-39
2022/06/24 07:29:53;;;;;;;5.70;2.00;;;;;;;;;;5053793;28;20021;-41
2022/06/24 07:32:18;;;;;;;11.20;2.75;;;;;;;;;;5064792;28;20593;-39
2022/06/24 07:34:44;;;;;;;7.57;1.67;;;;;;;;;;5053399;28;20112;-38
2022/06/24 07:37:09;;;;;;;8.50;2.72;;;;;;;;;;5060779;28;20025;-39
2022/06/24 07:39:34;;;;;;;4.60;1.30;;;;;;;;;;5057796;28;20028;-40
2022/06/24 07:42:00;;;;;;;3.65;1.50;;;;;;;;;;5058831;28;20292;-40
2022/06/24 07:44:25;;;;;;;2.60;1.38;;;;;;;;;;5075390;28;20096;-39
2022/06/24 07:46:50;;;;;;;4.63;1.97;;;;;;;;;;5060714;28;20036;-40
2022/06/24 07:49:16;;;;;;;7.53;1.90;;;;;;;;;;5058699;28;20264;-39
2022/06/24 07:51:41;;;;;;;19.70;2.08;;;;;;;;;;5060278;28;20070;-37
2022/06/24 07:54:09;;;;;;;5.50;2.00;;;;;;;;;;5058827;28;20033;-38
2022/06/24 07:59:19;;;;;;;6.57;1.70;;;;;;;;;;5054340;28;20082;-37
2022/06/24 08:01:45;;;;;;;2.33;1.25;;;;;;;;;;5054482;28;20376;-38
2022/06/24 08:04:11;;;;;;;5.47;1.60;;;;;;;;;;5063764;28;20059;-37
2022/06/24 08:06:40;;;;;;;4.18;1.80;;;;;;;;;;5064883;28;20024;-39
2022/06/24 08:09:06;;;;;;;8.23;1.55;;;;;;;;;;5058128;28;20021;-37
2022/06/24 08:11:31;;;;;;;4.95;1.60;;;;;;;;;;5053432;28;20025;-39
2022/06/24 08:13:57;;;;;;;2.75;1.20;;;;;;;;;;5072119;28;20055;-37
2022/06/24 08:16:22;;;;;;;6.35;1.80;;;;;;;;;;5054017;28;20029;-36
2022/06/24 08:18:48;;;;;;;5.80;1.65;;;;;;;;;;5063162;28;20669;-37
2022/06/24 08:21:14;;;;;;;3.55;1.65;;;;;;;;;;5073721;28;20032;-37
2022/06/24 08:23:39;;;;;;;4.35;1.80;;;;;;;;;;5069927;28;20021;-37
2022/06/24 08:26:05;;;;;;;3.20;1.60;;;;;;;;;;5058007;28;20017;-39
2022/06/24 08:28:30;;;;;;;5.03;1.40;;;;;;;;;;5062378;28;20051;-37
2022/06/24 08:30:55;;;;;;;5.40;1.52;;;;;;;;;;5056085;28;20021;-37
2022/06/24 08:33:21;;;;;;;5.13;1.40;;;;;;;;;;5064424;28;20033;-36
2022/06/24 08:35:46;;;;;;;6.90;1.88;;;;;;;;;;5057593;28;20104;-39
2022/06/24 08:38:11;;;;;;;3.08;1.27;;;;;;;;;;5057362;28;20021;-36
2022/06/24 08:40:37;;;;;;;3.28;1.67;;;;;;;;;;5060837;28;20050;-36
2022/06/24 08:43:02;;;;;;;2.38;1.40;;;;;;;;;;5057775;28;20028;-37
2022/06/24 08:45:28;;;;;;;2.90;1.40;;;;;;;;;;5060128;28;20667;-35
2022/06/24 08:47:53;;;;;;;4.22;1.60;;;;;;;;;;5051743;28;20024;-36
2022/06/24 08:50:19;;;;;;;3.33;1.40;;;;;;;;;;5060876;28;20012;-38
2022/06/24 08:52:51;;;;;;;5.35;1.20;;;;;;;;;;5054556;28;20591;-37
2022/06/24 08:55:18;;;;;;;12.75;1.67;;;;;;;;;;5068194;28;20023;-37
2022/06/24 08:57:44;;;;;;;2.88;1.23;;;;;;;;;;5055179;28;20082;-37
2022/06/24 09:00:10;;;;;;;5.18;1.40;;;;;;;;;;5055022;28;20029;-38
2022/06/24 09:02:35;;;;;;;4.03;1.10;;;;;;;;;;5061731;28;20097;-37
2022/06/24 09:05:07;;;;;;;1.20;1.10;;;;;;;;;;5065620;28;20036;-37
2022/06/24 09:07:32;;;;;;;2.90;1.33;;;;;;;;;;5052709;28;20254;-37
2022/06/24 09:09:58;;;;;;;6.83;1.33;;;;;;;;;;5056758;28;20041;-38
2022/06/24 09:12:23;;;;;;;2.35;1.10;;;;;;;;;;5063720;28;20266;-39
2022/06/24 09:14:48;;;;;;;3.28;1.58;;;;;;;;;;5061881;28;20027;-38
2022/06/24 09:17:14;;;;;;;4.63;1.88;;;;;;;;;;5060060;28;20451;-40
2022/06/24 09:19:39;;;;;;;3.45;1.40;;;;;;;;;;5059796;28;20396;-38
2022/06/24 09:22:06;;;;;;;2.55;1.20;;;;;;;;;;5060692;28;20163;-38
2022/06/24 09:24:44;;;;;;;3.42;1.67;;;;;;;;;;5051354;28;20013;-38
2022/06/24 09:27:09;;;;;;;6.13;1.45;;;;;;;;;;5050264;28;20488;-38
2022/06/24 09:29:35;;;;;;;6.82;1.30;;;;;;;;;;5054748;28;20021;-37
2022/06/24 09:32:04;;;;;;;3.28;1.02;;;;;;;;;;5054059;28;20021;-38
2022/06/24 09:34:30;;;;;;;2.95;1.20;;;;;;;;;;5055086;28;20043;-37
2022/06/24 09:36:55;;;;;;;2.70;1.40;;;;;;;;;;5051779;28;20100;-38
2022/06/24 09:39:22;;;;;;;2.70;1.40;;;;;;;;;;5051762;28;20262;-39
2022/06/24 09:41:51;;;;;;;2.65;1.17;;;;;;;;;;5052000;28;20060;-41
2022/06/24 09:44:17;;;;;;;3.78;1.38;;;;;;;;;;5054000;28;20055;-39
2022/06/24 09:46:42;;;;;;;3.15;1.20;;;;;;;;;;5058268;28;20367;-41
2022/06/24 09:49:12;;;;;;;5.35;1.23;;;;;;;;;;5062201;28;20028;-42
2022/06/24 09:51:39;;;;;;;6.35;1.27;;;;;;;;;;5062029;28;20024;-41
2022/06/24 09:54:05;;;;;;;4.63;1.40;;;;;;;;;;5069066;28;20048;-38
2022/06/24 09:56:30;;;;;;;3.95;1.80;;;;;;;;;;5070094;28;20025;-40
2022/06/24 10:01:40;;;;;;;5.88;1.50;;;;;;;;;;5071565;28;20069;-41
2022/06/24 10:04:08;;;;;;;14.57;1.73;;;;;;;;;;5072059;28;20067;-37
2022/06/24 10:06:35;;;;;;;4.38;1.60;;;;;;;;;;5071357;28;20021;-38
2022/06/24 10:09:02;;;;;;;2.25;1.23;;;;;;;;;;5071457;28;20181;-40
2022/06/24 10:11:28;;;;;;;4.82;1.50;;;;;;;;;;5071620;28;20041;-38
2022/06/24 10:13:54;;;;;;;7.05;1.27;;;;;;;;;;5071886;28;20032;-38
2022/06/24 10:16:20;;;;;;;4.90;1.33;;;;;;;;;;5070872;28;20055;-39
2022/06/24 10:18:48;;;;;;;9.77;1.73;;;;;;;;;;5071586;28;20027;-39
2022/06/24 10:21:16;;;;;;;3.42;1.33;;;;;;;;;;5071670;28;20022;-38
2022/06/24 10:23:48;;;;;;;3.90;1.35;;;;;;;;;;5071974;28;20020;-40
2022/06/24 10:26:22;;;;;;;3.03;1.27;;;;;;;;;;5070604;28;20031;-38
2022/06/24 10:29:00;;;;;;;4.43;1.20;;;;;;;;;;5070089;28;20418;-39
2022/06/24 10:31:37;;;;;;;7.15;1.63;;;;;;;;;;5055933;28;20111;-38
2022/06/24 10:34:03;;;;;;;4.72;1.40;;;;;;;;;;5054592;28;20042;-38
2022/06/24 10:36:31;;;;;;;1.92;1.20;;;;;;;;;;5061369;28;20024;-39
2022/06/24 10:39:06;;;;;;;194.02;12.85;;;;;;;;;;5060226;28;20029;-36
2022/06/24 10:41:38;;;;;;;2.78;1.33;;;;;;;;;;5056314;28;20391;-38
2022/06/24 10:44:23;;;;;;;3.92;1.35;;;;;;;;;;5063751;28;20032;-38
2022/06/24 10:47:06;;;;;;;5.90;1.48;;;;;;;;;;5062005;28;20103;-38
2022/06/24 10:50:01;;;;;;;5.60;1.38;;;;;;;;;;5071348;28;20107;-39
2022/06/24 10:52:33;;;;;;;4.32;1.40;;;;;;;;;;5057706;28;20025;-38
2022/06/24 10:55:17;;;;;;;6.55;1.40;;;;;;;;;;5050622;28;20575;-39
2022/06/24 10:57:45;;;;;;;1.90;1.40;;;;;;;;;;5050136;28;20025;-38
2022/06/24 11:00:11;;;;;;;6.93;1.30;;;;;;;;;;5050973;28;20020;-38
2022/06/24 11:02:36;;;;;;;13.05;1.50;;;;;;;;;;5050611;28;20386;-38
2022/06/24 11:05:02;;;;;;;3.30;1.33;;;;;;;;;;5052999;28;20506;-40
2022/06/24 11:07:27;;;;;;;3.85;1.52;;;;;;;;;;5054151;28;20048;-39
2022/06/24 11:09:52;;;;;;;4.63;1.30;;;;;;;;;;5051756;28;20045;-39
2022/06/24 11:12:30;;;;;;;1.92;1.15;;;;;;;;;;5063731;28;20258;-38
2022/06/24 11:14:56;;;;;;;3.17;1.50;;;;;;;;;;5058917;28;20031;-41
2022/06/24 11:17:25;;;;;;;1.33;1.20;;;;;;;;;;5059334;28;20442;-39
2022/06/24 11:19:51;;;;;;;4.35;1.40;;;;;;;;;;5062399;28;20464;-39
2022/06/24 11:22:17;;;;;;;5.80;1.30;;;;;;;;;;5053948;28;20028;-38
2022/06/24 11:24:44;;;;;;;6.07;1.90;;;;;;;;;;5061076;28;20119;-39
2022/06/24 11:27:09;;;;;;;7.45;1.40;;;;;;;;;;5068578;28;20048;-39
2022/06/24 11:29:56;;;;;;;2.73;1.10;;;;;;;;;;5064249;28;20104;-37
2022/06/24 11:32:22;;;;;;;4.35;1.52;;;;;;;;;;5053644;28;20265;-38
2022/06/24 11:34:48;;;;;;;4.28;1.40;;;;;;;;;;5057024;28;20117;-38
2022/06/24 11:37:17;;;;;;;4.63;1.70;;;;;;;;;;5055020;28;20055;-40
2022/06/24 11:39:42;;;;;;;;;;;;;;;;;;5062201;28;20520;-39
2022/06/24 11:42:07;;;;;;;3.47;1.70;;;;;;;;;;5050726;28;19905;-41
2022/06/24 11:44:37;;;;;;;3.38;1.30;;;;;;;;;;5053728;28;20036;-38
2022/06/24 11:47:04;;;;;;;17.30;2.10;;;;;;;;;;5055997;28;20028;-39
2022/06/24 11:49:30;;;;;;;3.45;1.30;;;;;;;;;;5066185;28;20052;-38
2022/06/24 11:51:55;;;;;;;3.47;1.30;;;;;;;;;;5055221;28;20060;-39
2022/06/24 11:54:25;;;;;;;4.60;1.23;;;;;;;;;;5060045;28;20032;-39
2022/06/24 11:56:50;;;;;;;5.43;1.83;;;;;;;;;;5064918;28;20775;-39
2022/06/24 11:59:19;;;;;;;2.83;1.23;;;;;;;;;;5058160;28;20021;-39
2022/06/24 12:01:44;;;;;;;1.60;1.20;;;;;;;;;;5058131;28;20024;-38
2022/06/24 12:04:10;;;;;;;6.80;1.30;;;;;;;;;;5058819;28;20542;-38
2022/06/24 12:06:37;;;;;;;3.05;1.30;;;;;;;;;;5054976;28;20020;-40
2022/06/24 12:09:02;;;;;;;6.35;1.80;;;;;;;;;;5059780;28;20075;-38
2022/06/24 12:11:28;;;;;;;3.35;1.20;;;;;;;;;;5058239;28;20014;-38
2022/06/24 12:14:02;;;;;;;4.53;1.45;;;;;;;;;;5050990;28;20029;-38
2022/06/24 12:16:29;;;;;;;3.85;1.30;;;;;;;;;;5054773;28;20043;-39
2022/06/24 12:18:54;;;;;;;5.75;1.75;;;;;;;;;;5064114;28;20561;-38
2022/06/24 12:21:24;;;;;;;3.42;1.77;;;;;;;;;;5051771;28;20055;-38
2022/06/24 12:23:49;;;;;;;6.07;1.42;;;;;;;;;;5054876;28;20108;-38
2022/06/24 12:26:16;;;;;;;10.77;1.75;;;;;;;;;;5049009;28;20095;-38
2022/06/24 12:28:42;;;;;;;6.60;1.58;;;;;;;;;;5066623;28;20013;-39
2022/06/24 12:31:08;;;;;;;3.97;1.10;;;;;;;;;;5065947;28;20432;-38
2022/06/24 12:33:36;;;;;;;3.08;1.42;;;;;;;;;;5057730;28;20044;-40
2022/06/24 12:36:05;;;;;;;2.65;1.45;;;;;;;;;;5061178;28;20031;-39
2022/06/24 12:38:31;;;;;;;4.25;1.35;;;;;;;;;;5065481;28;20042;-41
2022/06/24 12:41:13;;;;;;;2.80;1.35;;;;;;;;;;5054026;28;20070;-39
2022/06/24 12:43:57;;;;;;;8.38;2.20;;;;;;;;;;5062149;28;20032;-38
2022/06/24 12:46:23;;;;;;;2.15;1.40;;;;;;;;;;5071177;28;20017;-39
2022/06/24 12:51:38;;;;;;;1.92;1.40;;;;;;;;;;5057587;28;20059;-39
2022/06/24 12:54:04;;;;;;;3.22;1.25;;;;;;;;;;5062392;28;20033;-41
2022/06/24 12:56:32;;;;;;;2.30;1.30;;;;;;;;;;5059222;28;20524;-41
2022/06/24 12:58:57;;;;;;;;;;;;;;;;;;5066497;28;20095;-38
2022/06/24 13:01:23;;;;;;;4.33;1.40;;;;;;;;;;5066225;28;20004;-42
2022/06/24 13:03:48;;;;;;;6.22;1.30;;;;;;;;;;5053704;28;20087;-39
2022/06/24 13:06:14;;;;;;;3.72;1.48;;;;;;;;;;5053194;28;20037;-39
2022/06/24 13:08:39;;;;;;;3.25;1.30;;;;;;;;;;5052625;28;20028;-38
2022/06/24 13:11:05;;;;;;;5.15;1.55;;;;;;;;;;5053259;28;20045;-38
2022/06/24 13:13:31;;;;;;;3.83;1.40;;;;;;;;;;5053389;28;20064;-38
2022/06/24 13:15:56;;;;;;;5.90;1.20;;;;;;;;;;5053389;28;20025;-39
2022/06/24 13:18:22;;;;;;;4.70;1.60;;;;;;;;;;5064287;28;20021;-36
2022/06/24 13:20:47;;;;;;;2.40;1.27;;;;;;;;;;5058746;28;20013;-40
2022/06/24 13:23:12;;;;;;;2.58;1.58;;;;;;;;;;5056220;28;20479;-37
2022/06/24 13:25:41;;;;;;;4.65;1.33;;;;;;;;;;5063615;28;20067;-37
2022/06/24 13:28:06;;;;;;;3.63;1.50;;;;;;;;;;5060610;28;20017;-41
2022/06/24 13:30:31;;;;;;;2.88;1.33;;;;;;;;;;5061708;28;20047;-37
2022/06/24 13:32:57;;;;;;;6.80;1.80;;;;;;;;;;5070030;28;20029;-37
2022/06/24 13:35:22;;;;;;;5.85;1.60;;;;;;;;;;5059854;28;20016;-38
2022/06/24 13:37:48;;;;;;;6.25;1.35;;;;;;;;;;5053333;28;20401;-39
2022/06/24 13:40:13;;;;;;;9.73;1.52;;;;;;;;;;5053759;28;20387;-38
2022/06/24 13:42:38;;;;;;;4.03;1.20;;;;;;;;;;5052487;28;20021;-39
2022/06/24 13:45:04;;;;;;;4.18;1.65;;;;;;;;;;5053746;28;20249;-38
2022/06/24 13:47:29;;;;;;;2.10;1.20;;;;;;;;;;5054429;28;20021;-39
2022/06/24 13:49:58;;;;;;;8.70;1.80;;;;;;;;;;5054341;28;20021;-38
2022/06/24 13:52:24;;;;;;;2.42;1.55;;;;;;;;;;5054099;28;20013;-38
2022/06/24 13:54:49;;;;;;;4.22;1.48;;;;;;;;;;5053504;28;20031;-39
2022/06/24 13:57:15;;;;;;;3.58;1.30;;;;;;;;;;5053581;28;20013;-39
2022/06/24 13:59:41;;;;;;;3.97;1.60;;;;;;;;;;5054094;28;20021;-38
2022/06/24 14:02:07;;;;;;;5.07;1.38;;;;;;;;;;5054398;28;20104;-38
2022/06/24 14:04:32;;;;;;;3.50;1.40;;;;;;;;;;5054049;28;20063;-38
2022/06/24 14:06:57;;;;;;;4.83;1.50;;;;;;;;;;5054091;28;20655;-38
2022/06/24 14:09:22;;;;;;;5.00;1.60;;;;;;;;;;5053971;28;20056;-38
2022/06/24 14:11:48;;;;;;;3.73;1.40;;;;;;;;;;5053899;28;20024;-38
2022/06/24 14:14:14;;;;;;;7.07;2.00;;;;;;;;;;5053722;28;20467;-38
2022/06/24 14:16:39;;;;;;;5.97;1.60;;;;;;;;;;5053987;28;20596;-38
2022/06/24 14:19:06;;;;;;;2.15;1.60;;;;;;;;;;5053987;28;20017;-38
2022/06/24 14:21:32;;;;;;;3.55;1.30;;;;;;;;;;5052529;28;20107;-38
2022/06/24 14:26:41;;;;;;;7.97;1.63;;;;;;;;;;5053519;28;20035;-38
2022/06/24 14:29:06;;;;;;;2.47;1.50;;;;;;;;;;5053562;28;20017;-38
2022/06/24 14:31:32;;;;;;;4.27;1.60;;;;;;;;;;5053768;28;20380;-38
2022/06/24 14:33:57;;;;;;;6.85;1.50;;;;;;;;;;5053671;28;20033;-38
2022/06/24 14:36:23;;;;;;;7.83;1.67;;;;;;;;;;5053525;28;20025;-38
2022/06/24 14:41:31;;;;;;;15.90;1.95;;;;;;;;;;5053326;28;20032;-38
2022/06/24 14:43:57;;;;;;;1.40;1.03;;;;;;;;;;5053319;28;20017;-38
2022/06/24 14:46:22;;;;;;;2.87;1.30;;;;;;;;;;5053619;28;20465;-38
2022/06/24 14:48:47;;;;;;;3.00;1.50;;;;;;;;;;5053359;28;20132;-38
2022/06/24 14:51:13;;;;;;;6.57;1.60;;;;;;;;;;5053651;28;20025;-38
2022/06/24 14:53:38;;;;;;;6.90;1.50;;;;;;;;;;5053222;28;20081;-39
2022/06/24 14:56:03;;;;;;;6.07;2.00;;;;;;;;;;5052957;28;20024;-38
2022/06/24 14:58:29;;;;;;;3.33;1.27;;;;;;;;;;5053278;28;20705;-38
2022/06/24 15:00:54;;;;;;;1.70;1.13;;;;;;;;;;5053139;28;20093;-38